Time;durP1;ratioP1;P1;durP2;ratioP2;P2;SDS_P1;SDS_P2;PMS_P1;PMS_P2;Temp;Humidity;BMP_temperature;BMP_pressure;BME280_temperature;BME280_humidity;BME280_pressure;Samples;Min_cycle;Max_cycle;Signal;HPM_P1;HPM_P2
2022/05/24 00:01:21;;;;;;;;;;;;;;;24.88;27.46;98430.78;4473742;32;33620;-82
2022/05/24 00:03:48;;;;;;;;;;;;;;;24.99;27.55;98427.53;4474814;32;35289;-81
2022/05/24 00:06:16;;;;;;;;;;;;;;;24.36;28.00;98419.59;4461274;32;34057;-82
2022/05/24 00:08:44;;;;;;;;;;;;;;;23.79;28.60;98417.38;4483267;32;34091;-82
2022/05/24 00:11:12;;;;;;;;;;;;;;;23.30;29.74;98418.09;4483111;32;33465;-81
2022/05/24 00:13:39;;;;;;;;;;;;;;;23.43;29.61;98414.81;4479396;32;35141;-81
2022/05/24 00:16:06;;;;;;;;;;;;;;;22.97;30.41;98406.56;4480759;31;33898;-81
2022/05/24 00:18:34;;;;;;;;;;;;;;;23.18;29.99;98413.41;4476465;32;34387;-81
2022/05/24 00:21:02;;;;;;;;;;;;;;;22.26;31.33;98417.00;4483271;32;34359;-81
2022/05/24 00:23:30;;;;;;;;;;;;;;;22.80;30.83;98416.13;4466703;32;34974;-81
2022/05/24 00:25:59;;;;;;;;;;;;;;;23.16;30.19;98403.88;4475197;32;35252;-94
2022/05/24 00:28:28;;;;;;;;;;;;;;;22.53;30.78;98401.63;4456581;32;34286;-81
2022/05/24 00:30:55;;;;;;;;;;;;;;;22.40;31.35;98397.88;4468815;32;33429;-82
2022/05/24 00:33:23;;;;;;;;;;;;;;;21.97;31.96;98405.09;4460958;32;34159;-80
2022/05/24 00:35:50;;;;;;;;;;;;;;;22.01;31.87;98399.66;4482765;31;35370;-81
2022/05/24 00:38:39;;;;;;;;;;;;;;;22.05;31.87;98397.72;4483807;32;35101;-81
2022/05/24 00:41:22;;;;;;;;;;;;;;;21.84;32.25;98396.91;4474931;32;34356;-84
2022/05/24 00:44:03;;;;;;;;;;;;;;;22.29;31.61;98401.03;4468134;32;34608;-81
2022/05/24 00:46:48;;;;;;;;;;;;;;;21.48;32.90;98402.00;4457204;32;35287;-81
2022/05/24 00:49:35;;;;;;;;;;;;;;;22.48;31.33;98398.38;4464331;32;33795;-85
2022/05/24 00:52:04;;;;;;;;;;;;;;;21.99;32.21;98396.19;4478733;32;33037;-81
2022/05/24 00:54:31;;;;;;;;;;;;;;;21.06;33.65;98409.06;4468356;32;33978;-82
2022/05/24 00:57:25;;;;;;;;;;;;;;;21.91;32.42;98406.25;4456438;32;33877;-88
2022/05/24 01:00:13;;;;;;;;;;;;;;;23.04;30.77;98402.69;4470114;32;34587;-82
2022/05/24 01:02:41;;;;;;;;;;;;;;;21.84;33.08;98410.94;4474671;32;33342;-81
2022/05/24 01:05:10;;;;;;;;;;;;;;;20.95;34.82;98402.50;4468886;32;34634;-83
2022/05/24 01:07:41;;;;;;;;;;;;;;;21.70;33.65;98394.88;4470082;32;34486;-81
2022/05/24 01:10:09;;;;;;;;;;;;;;;21.27;34.12;98398.50;4474153;32;34110;-81
2022/05/24 01:12:38;;;;;;;;;;;;;;;20.36;35.97;98402.19;4463272;32;33523;-82
2022/05/24 01:15:06;;;;;;;;;;;;;;;21.86;33.53;98406.47;4468045;32;33910;-82
2022/05/24 01:17:34;;;;;;;;;;;;;;;21.02;34.89;98406.59;4469462;32;34465;-82
2022/05/24 01:20:01;;;;;;;;;;;;;;;21.00;34.73;98404.03;4469015;32;34225;-90
2022/05/24 01:22:35;;;;;;;;;;;;;;;21.32;34.46;98410.56;4459217;32;33794;-81
2022/05/24 01:25:05;;;;;;;;;;;;;;;21.21;34.41;98407.53;4479445;32;34107;-81
2022/05/24 01:27:35;;;;;;;;;;;;;;;20.84;35.11;98427.53;4459783;32;34319;-81
2022/05/24 01:30:04;;;;;;;;;;;;;;;22.01;33.38;98428.69;4482587;32;34135;-81
2022/05/24 01:38:04;;;;;;;;;;;;;;;21.34;34.12;98453.59;4457338;32;34411;-86
2022/05/24 01:40:33;;;;;;;;;;;;;;;22.82;32.10;98483.00;4480906;32;35263;-83
2022/05/24 01:43:00;;;;;;;;;;;;;;;23.23;31.24;98498.69;4474742;32;34464;-81
2022/05/24 01:45:34;;;;;;;;;;;;;;;23.35;30.70;98485.78;4467957;32;33762;-81
2022/05/24 01:48:04;;;;;;;;;;;;;;;22.91;31.18;98480.84;4459853;32;34254;-81
2022/05/24 01:50:31;;;;;;;;;;;;;;;23.98;29.97;98464.88;4481153;32;34339;-81
2022/05/24 01:53:01;;;;;;;;;;;;;;;22.24;34.49;98472.53;4466873;32;31706;-81
2022/05/24 01:55:33;;;;;;;;;;;;;;;22.54;37.31;98428.00;4453585;32;35017;-80
2022/05/24 01:58:03;;;;;;;;;;;;;;;22.42;37.21;98377.53;4466937;32;33929;-81
2022/05/24 02:00:31;;;;;;;;;;;;;;;22.51;37.11;98399.06;4482148;32;33406;-81
2022/05/24 02:02:58;;;;;;;;;;;;;;;20.29;39.85;98402.47;4482097;32;33818;-81
2022/05/24 02:05:30;;;;;;;;;;;;;;;21.67;37.91;98399.44;4469066;32;34658;-81
2022/05/24 02:07:58;;;;;;;;;;;;;;;22.39;38.93;98414.63;4469658;32;35199;-81
2022/05/24 02:10:26;;;;;;;;;;;;;;;22.64;40.03;98441.59;4468878;32;34007;-81
2022/05/24 02:12:54;;;;;;;;;;;;;;;22.68;41.13;98448.44;4454108;32;33373;-81
2022/05/24 02:15:23;;;;;;;;;;;;;;;22.72;41.02;98465.88;4453501;32;33530;-80
2022/05/24 02:17:53;;;;;;;;;;;;;;;23.26;39.92;98476.50;4457527;32;35230;-81
2022/05/24 02:20:23;;;;;;;;;;;;;;;23.81;38.96;98467.59;4473680;32;35070;-80
2022/05/24 02:22:50;;;;;;;;;;;;;;;23.58;39.49;98472.25;4460113;32;33365;-80
2022/05/24 02:25:20;;;;;;;;;;;;;;;24.06;38.69;98472.44;4467225;32;34056;-81
2022/05/24 02:27:47;;;;;;;;;;;;;;;24.00;38.21;98479.75;4466541;32;34160;-81
2022/05/24 02:30:17;;;;;;;;;;;;;;;23.83;38.72;98493.03;4482428;32;34530;-81
2022/05/24 02:32:45;;;;;;;;;;;;;;;23.64;40.10;98495.75;4464524;32;32901;-81
2022/05/24 02:35:12;;;;;;;;;;;;;;;23.66;40.08;98501.84;4478399;32;33951;-81
2022/05/24 02:37:40;;;;;;;;;;;;;;;23.72;40.38;98500.69;4478715;32;34403;-80
2022/05/24 02:42:54;;;;;;;;;;;;;;;23.88;40.13;98500.75;4476509;31;33973;-80
2022/05/24 02:45:21;;;;;;;;;;;;;;;23.94;40.04;98503.94;4470060;32;34291;-80
2022/05/24 02:47:49;;;;;;;;;;;;;;;23.95;40.53;98507.44;4458588;32;34008;-92
2022/05/24 02:50:17;;;;;;;;;;;;;;;23.88;40.52;98501.59;4470567;32;34269;-81
2022/05/24 02:52:44;;;;;;;;;;;;;;;23.68;40.61;98507.06;4473993;32;33461;-80
2022/05/24 02:55:11;;;;;;;;;;;;;;;23.82;40.44;98511.62;4476572;32;34798;-81
2022/05/24 02:57:41;;;;;;;;;;;;;;;23.74;40.70;98514.69;4478108;32;34224;-81
2022/05/24 03:00:10;;;;;;;;;;;;;;;24.01;40.68;98512.38;4480350;32;34596;-81
2022/05/24 03:02:38;;;;;;;;;;;;;;;23.85;41.26;98500.91;4470148;32;33216;-81
2022/05/24 03:05:07;;;;;;;;;;;;;;;24.37;40.37;98504.28;4459516;32;33714;-81
2022/05/24 03:10:20;;;;;;;;;;;;;;;23.89;41.50;98491.84;4470180;32;33800;-81
2022/05/24 03:15:34;;;;;;;;;;;;;;;23.71;42.07;98483.06;4474689;32;35680;-81
2022/05/24 03:18:01;;;;;;;;;;;;;;;23.73;41.40;98468.84;4462670;32;34223;-81
2022/05/24 03:20:28;;;;;;;;;;;;;;;24.08;40.98;98467.91;4474050;32;33929;-81
2022/05/24 03:22:59;;;;;;;;;;;;;;;23.84;41.27;98470.94;4473904;32;34671;-81
2022/05/24 03:25:26;;;;;;;;;;;;;;;24.12;41.07;98472.97;4476158;32;34804;-81
2022/05/24 03:27:53;;;;;;;;;;;;;;;24.09;41.25;98482.84;4476973;32;34386;-80
2022/05/24 03:30:21;;;;;;;;;;;;;;;24.09;41.22;98493.44;4473020;32;34683;-80
2022/05/24 03:32:51;;;;;;;;;;;;;;;24.37;40.76;98508.75;4466736;32;33993;-80
2022/05/24 03:35:18;;;;;;;;;;;;;;;23.85;41.63;98525.56;4456452;32;33860;-80
2022/05/24 03:37:46;;;;;;;;;;;;;;;23.68;42.01;98546.78;4478092;32;35175;-81
2022/05/24 03:40:13;;;;;;;;;;;;;;;23.78;41.60;98546.19;4458961;32;35063;-81
2022/05/24 03:42:40;;;;;;;;;;;;;;;23.84;41.42;98549.50;4480522;32;33332;-80
2022/05/24 03:45:09;;;;;;;;;;;;;;;23.80;41.58;98543.50;4468666;32;34338;-80
2022/05/24 03:47:36;;;;;;;;;;;;;;;23.39;42.02;98540.25;4480076;32;34365;-80
2022/05/24 03:50:04;;;;;;;;;;;;;;;22.43;43.79;98521.87;4476205;32;34785;-81
2022/05/24 03:52:32;;;;;;;;;;;;;;;23.11;42.17;98519.56;4468579;32;33554;-80
2022/05/24 03:54:59;;;;;;;;;;;;;;;23.08;42.89;98520.59;4476156;31;34396;-87
2022/05/24 04:00:13;;;;;;;;;;;;;;;22.54;42.26;98535.41;4483788;32;34236;-80
2022/05/24 04:02:41;;;;;;;;;;;;;;;22.29;42.44;98525.97;4478207;32;32998;-80
2022/05/24 04:05:09;;;;;;;;;;;;;;;21.27;45.26;98527.69;4469320;32;33869;-86
2022/05/24 04:07:36;;;;;;;;;;;;;;;22.45;43.57;98525.28;4477338;32;35332;-80
2022/05/24 04:10:05;;;;;;;;;;;;;;;22.53;43.38;98533.72;4478248;32;34542;-80
2022/05/24 04:12:32;;;;;;;;;;;;;;;23.00;42.99;98541.25;4480194;31;33537;-80
2022/05/24 04:14:59;;;;;;;;;;;;;;;22.42;42.87;98533.34;4470107;32;34318;-80
2022/05/24 04:17:32;;;;;;;;;;;;;;;23.00;41.84;98539.47;4469569;32;34137;-90
2022/05/24 04:19:59;;;;;;;;;;;;;;;22.48;44.07;98536.56;4481104;32;34809;-93
2022/05/24 04:22:27;;;;;;;;;;;;;;;22.83;43.16;98542.84;4468963;32;34263;-80
2022/05/24 04:24:54;;;;;;;;;;;;;;;23.07;42.97;98545.31;4462061;32;33841;-81
2022/05/24 04:27:22;;;;;;;;;;;;;;;23.10;42.92;98547.78;4473633;32;34151;-81
2022/05/24 04:29:53;;;;;;;;;;;;;;;23.26;42.70;98555.84;4483031;32;34859;-81
2022/05/24 04:32:21;;;;;;;;;;;;;;;23.45;42.42;98555.78;4475830;32;33166;-80
2022/05/24 04:34:48;;;;;;;;;;;;;;;23.45;42.79;98554.03;4480595;31;35069;-80
2022/05/24 04:37:16;;;;;;;;;;;;;;;23.37;42.64;98552.66;4475704;31;35026;-82
2022/05/24 04:39:44;;;;;;;;;;;;;;;23.34;42.72;98547.56;4484973;31;35045;-80
2022/05/24 04:42:23;;;;;;;;;;;;;;;22.96;43.22;98547.63;4476274;32;34212;-91
2022/05/24 04:44:59;;;;;;;;;;;;;;;21.79;45.57;98562.50;4482994;32;33838;-80
2022/05/24 04:47:28;;;;;;;;;;;;;;;22.26;44.03;98556.94;4472745;32;34159;-81
2022/05/24 04:49:57;;;;;;;;;;;;;;;20.87;47.33;98568.78;4476352;32;34159;-82
2022/05/24 04:52:27;;;;;;;;;;;;;;;21.41;46.58;98564.09;4460819;32;33443;-80
2022/05/24 04:54:54;;;;;;;;;;;;;;;20.97;47.31;98564.88;4477980;32;32868;-80
2022/05/24 04:57:22;;;;;;;;;;;;;;;21.30;46.77;98561.84;4473768;32;34443;-90
2022/05/24 04:59:49;;;;;;;;;;;;;;;20.70;48.23;98564.19;4473054;32;34534;-81
2022/05/24 05:02:17;;;;;;;;;;;;;;;19.51;51.51;98568.34;4482772;32;34401;-81
2022/05/24 05:04:45;;;;;;;;;;;;;;;19.86;50.87;98554.91;4479077;32;34649;-93
2022/05/24 05:07:15;;;;;;;;;;;;;;;19.61;51.50;98560.09;4477984;32;35209;-80
2022/05/24 05:09:43;;;;;;;;;;;;;;;19.70;51.51;98569.50;4481928;32;33870;-81
2022/05/24 05:12:11;;;;;;;;;;;;;;;19.76;51.46;98566.66;4462313;32;34099;-80
2022/05/24 05:14:39;;;;;;;;;;;;;;;18.94;53.63;98572.75;4459924;32;33682;-80
2022/05/24 05:17:09;;;;;;;;;;;;;;;19.32;52.72;98576.84;4461317;32;34356;-87
2022/05/24 05:19:36;;;;;;;;;;;;;;;18.82;53.80;98568.75;4472759;32;34270;-81
2022/05/24 05:22:04;;;;;;;;;;;;;;;19.27;52.27;98562.97;4476512;31;33519;-82
2022/05/24 05:24:31;;;;;;;;;;;;;;;18.85;53.59;98576.53;4473846;32;34190;-80
2022/05/24 05:26:59;;;;;;;;;;;;;;;18.24;54.72;98570.41;4478832;31;34025;-81
2022/05/24 05:32:30;;;;;;;;;;;;;;;17.75;56.98;98585.69;4475877;32;32973;-80
2022/05/24 05:34:57;;;;;;;;;;;;;;;17.92;56.61;98587.03;4481482;32;34012;-80
2022/05/24 05:37:29;;;;;;;;;;;;;;;19.24;53.74;98584.09;4465353;32;35136;-81
2022/05/24 05:39:56;;;;;;;;;;;;;;;18.20;55.96;98580.12;4465227;32;33891;-82
2022/05/24 05:42:24;;;;;;;;;;;;;;;19.26;53.45;98577.03;4456582;32;34717;-82
2022/05/24 05:44:52;;;;;;;;;;;;;;;19.61;52.47;98582.91;4481826;32;34370;-83
2022/05/24 05:47:19;;;;;;;;;;;;;;;19.43;53.00;98582.63;4479701;32;35522;-85
2022/05/24 05:49:47;;;;;;;;;;;;;;;19.75;51.73;98579.84;4473914;32;34270;-86
2022/05/24 05:52:18;;;;;;;;;;;;;;;20.22;50.73;98578.19;4454896;32;33714;-87
2022/05/24 05:54:45;;;;;;;;;;;;;;;19.35;52.82;98583.75;4479298;32;34199;-83
2022/05/24 05:57:13;;;;;;;;;;;;;;;19.57;52.98;98584.78;4479798;32;34452;-83
2022/05/24 05:59:40;;;;;;;;;;;;;;;20.18;51.03;98576.59;4470267;32;33976;-83
2022/05/24 06:02:07;;;;;;;;;;;;;;;18.92;53.77;98579.84;4476228;32;34069;-82
2022/05/24 06:04:35;;;;;;;;;;;;;;;18.72;54.74;98585.69;4479926;32;34398;-83
2022/05/24 06:07:03;;;;;;;;;;;;;;;18.18;57.11;98584.56;4480328;32;33530;-81
2022/05/24 06:09:30;;;;;;;;;;;;;;;17.68;57.59;98591.94;4472570;32;33994;-95
2022/05/24 06:11:59;;;;;;;;;;;;;;;17.84;57.65;98589.84;4464864;32;33482;-94
2022/05/24 06:14:26;;;;;;;;;;;;;;;17.44;59.32;98587.31;4468560;32;34319;-88
2022/05/24 06:17:21;;;;;;;;;;;;;;;17.64;58.94;98586.81;4482464;32;34435;-92
2022/05/24 06:19:48;;;;;;;;;;;;;;;17.29;58.57;98579.81;4469176;32;34286;-92
2022/05/24 06:22:16;;;;;;;;;;;;;;;17.35;59.21;98580.56;4482772;32;33215;-85
2022/05/24 06:24:46;;;;;;;;;;;;;;;17.59;58.38;98580.84;4483438;32;34170;-91
2022/05/24 06:27:14;;;;;;;;;;;;;;;17.59;58.88;98580.84;4482713;32;34364;-81
2022/05/24 06:29:41;;;;;;;;;;;;;;;18.11;57.76;98569.03;4482807;32;34339;-86
2022/05/24 06:32:08;;;;;;;;;;;;;;;17.73;58.45;98578.75;4483177;32;33480;-91
2022/05/24 06:34:36;;;;;;;;;;;;;;;18.18;57.07;98578.44;4483107;32;34273;-90
2022/05/24 06:37:03;;;;;;;;;;;;;;;16.90;60.94;98583.31;4482668;32;34508;-84
2022/05/24 06:39:31;;;;;;;;;;;;;;;17.54;59.87;98582.69;4482927;32;34736;-83
2022/05/24 06:42:00;;;;;;;;;;;;;;;17.55;59.99;98595.78;4482987;32;33713;-81
2022/05/24 06:44:27;;;;;;;;;;;;;;;17.48;60.18;98595.06;4482917;32;34071;-86
2022/05/24 06:46:55;;;;;;;;;;;;;;;17.67;60.12;98603.34;4468732;32;33883;-92
2022/05/24 06:49:22;;;;;;;;;;;;;;;18.32;56.80;98591.19;4482315;32;33670;-82
2022/05/24 06:51:49;;;;;;;;;;;;;;;18.92;55.85;98599.09;4472801;32;33112;-92
2022/05/24 06:54:17;;;;;;;;;;;;;;;18.56;56.78;98606.25;4478487;32;34215;-85
2022/05/24 06:56:44;;;;;;;;;;;;;;;18.77;56.09;98607.44;4482957;32;34419;-82
2022/05/24 07:04:43;;;;;;;;;;;;;;;18.56;57.08;98618.50;4482827;32;34907;-84
2022/05/24 07:07:11;;;;;;;;;;;;;;;18.18;58.19;98612.53;4476425;32;34067;-83
2022/05/24 07:09:40;;;;;;;;;;;;;;;18.13;58.09;98611.81;4466756;32;35027;-81
2022/05/24 07:12:08;;;;;;;;;;;;;;;17.73;59.62;98613.69;4475530;32;33398;-81
2022/05/24 07:14:36;;;;;;;;;;;;;;;18.73;56.35;98604.94;4469393;32;35171;-83
2022/05/24 07:17:04;;;;;;;;;;;;;;;18.15;58.78;98608.25;4454973;32;34292;-82
2022/05/24 07:19:32;;;;;;;;;;;;;;;17.63;59.13;98606.09;4465008;32;34344;-82
2022/05/24 07:21:59;;;;;;;;;;;;;;;18.19;58.33;98601.16;4484434;32;34415;-83
2022/05/24 07:24:27;;;;;;;;;;;;;;;17.63;59.09;98609.56;4475216;31;33865;-85
2022/05/24 07:26:55;;;;;;;;;;;;;;;17.80;59.57;98611.78;4499067;31;33994;-83
2022/05/24 07:29:23;;;;;;;;;;;;;;;18.17;58.34;98608.22;4486355;31;35051;-83
2022/05/24 07:31:50;;;;;;;;;;;;;;;19.28;55.31;98601.50;4500504;31;33613;-83
2022/05/24 07:34:18;;;;;;;;;;;;;;;18.85;57.31;98597.53;4471001;32;33888;-84
2022/05/24 07:36:46;;;;;;;;;;;;;;;19.59;54.75;98608.41;4454438;32;34140;-83
2022/05/24 07:39:13;;;;;;;;;;;;;;;19.09;56.16;98605.59;4468804;32;34875;-89
2022/05/24 07:47:32;;;;;;;;;;;;;;;18.59;57.96;98594.78;4476904;32;35945;-82
2022/05/24 07:50:00;;;;;;;;;;;;;;;19.92;54.26;98590.66;4484264;32;33990;-82
2022/05/24 07:52:27;;;;;;;;;;;;;;;19.39;54.74;98599.37;4457084;32;34380;-90
2022/05/24 07:54:55;;;;;;;;;;;;;;;18.28;58.02;98600.91;4480791;32;33799;-82
2022/05/24 07:57:23;;;;;;;;;;;;;;;18.77;57.81;98602.16;4482781;32;34164;-82
2022/05/24 07:59:51;;;;;;;;;;;;;;;19.84;54.45;98606.69;4484029;32;34868;-81
2022/05/24 08:02:18;;;;;;;;;;;;;;;19.96;54.65;98612.44;4484115;32;34301;-81
2022/05/24 08:04:46;;;;;;;;;;;;;;;19.79;54.95;98616.53;4484034;32;34327;-82
2022/05/24 08:07:14;;;;;;;;;;;;;;;20.16;53.89;98616.13;4470903;32;34451;-95
2022/05/24 08:09:41;;;;;;;;;;;;;;;19.59;54.65;98629.44;4468344;32;34289;-81
2022/05/24 08:12:09;;;;;;;;;;;;;;;19.24;57.22;98623.50;4468453;32;34098;-83
2022/05/24 08:14:36;;;;;;;;;;;;;;;19.54;56.18;98621.69;4468560;32;34741;-92
2022/05/24 08:17:04;;;;;;;;;;;;;;;20.53;53.43;98609.59;4468440;32;34132;-83
2022/05/24 08:19:37;;;;;;;;;;;;;;;19.78;56.21;98617.44;4467762;32;34212;-87
2022/05/24 08:22:05;;;;;;;;;;;;;;;18.82;57.12;98613.37;4453858;32;33682;-81
2022/05/24 08:24:32;;;;;;;;;;;;;;;19.30;56.33;98612.81;4467910;32;34131;-85
2022/05/24 08:27:00;;;;;;;;;;;;;;;19.33;56.17;98606.63;4468524;32;34280;-88
2022/05/24 08:29:28;;;;;;;;;;;;;;;19.38;56.48;98615.19;4468747;32;35067;-88
2022/05/24 08:31:55;;;;;;;;;;;;;;;19.60;55.93;98615.38;4468311;32;34193;-82
2022/05/24 08:34:23;;;;;;;;;;;;;;;19.72;55.78;98612.38;4454256;32;34053;-82
2022/05/24 08:36:50;;;;;;;;;;;;;;;19.57;55.50;98616.31;4468368;32;33665;-92
2022/05/24 08:39:17;;;;;;;;;;;;;;;19.85;54.99;98611.06;4468196;32;34805;-94
2022/05/24 08:41:44;;;;;;;;;;;;;;;19.11;57.26;98612.53;4468403;32;32708;-82
2022/05/24 08:50:02;;;;;;;;;;;;;;;19.26;57.75;98615.59;4456444;32;35026;-82
2022/05/24 08:52:32;;;;;;;;;;;;;;;20.05;56.23;98614.78;4454214;32;33003;-82
2022/05/24 08:54:59;;;;;;;;;;;;;;;20.07;56.09;98612.94;4453868;32;34905;-81
2022/05/24 08:57:46;;;;;;;;;;;;;;;20.61;53.61;98602.28;4468379;32;35338;-82
2022/05/24 09:00:18;;;;;;;;;;;;;;;19.64;57.13;98617.03;4453939;32;34139;-82
2022/05/24 09:02:46;;;;;;;;;;;;;;;20.60;55.08;98602.31;4453940;32;32971;-82
2022/05/24 09:05:18;;;;;;;;;;;;;;;21.55;53.28;98614.47;4454222;32;34039;-88
2022/05/24 09:07:48;;;;;;;;;;;;;;;20.69;54.17;98609.88;4467903;32;34593;-81
2022/05/24 09:10:36;;;;;;;;;;;;;;;20.92;52.26;98611.66;4468005;32;34240;-81
2022/05/24 09:13:14;;;;;;;;;;;;;;;20.56;53.63;98616.50;4462279;32;33121;-89
2022/05/24 09:15:50;;;;;;;;;;;;;;;20.13;55.89;98610.12;4453827;32;34305;-81
2022/05/24 09:18:38;;;;;;;;;;;;;;;20.25;55.78;98621.97;4467640;32;34040;-92
2022/05/24 09:21:05;;;;;;;;;;;;;;;20.62;54.64;98613.66;4453800;32;33786;-82
2022/05/24 09:23:39;;;;;;;;;;;;;;;21.10;53.22;98618.84;4467824;32;33997;-81
2022/05/24 09:26:07;;;;;;;;;;;;;;;20.76;52.76;98614.00;4454108;32;35074;-82
2022/05/24 09:29:01;;;;;;;;;;;;;;;21.13;53.60;98612.59;4453888;32;35238;-85
2022/05/24 09:31:47;;;;;;;;;;;;;;;20.79;53.71;98602.47;4466362;32;35084;-81
2022/05/24 09:34:17;;;;;;;;;;;;;;;20.69;52.47;98604.63;4453646;32;33625;-82
2022/05/24 09:36:51;;;;;;;;;;;;;;;20.63;52.72;98625.91;4467186;32;33858;-81
2022/05/24 09:39:32;;;;;;;;;;;;;;;21.96;51.08;98620.66;4467847;32;35223;-82
2022/05/24 09:42:01;;;;;;;;;;;;;;;22.65;47.84;98609.75;4468029;32;34873;-92
2022/05/24 09:44:29;;;;;;;;;;;;;;;21.99;49.93;98611.78;4453987;32;33435;-83
2022/05/24 09:46:58;;;;;;;;;;;;;;;21.35;51.89;98620.56;4453549;32;34955;-81
2022/05/24 09:49:27;;;;;;;;;;;;;;;21.59;51.81;98626.59;4468294;32;34398;-82
2022/05/24 09:51:58;;;;;;;;;;;;;;;22.11;49.16;98622.66;4453643;32;35101;-82
2022/05/24 09:54:27;;;;;;;;;;;;;;;22.51;48.70;98620.97;4454152;32;33197;-83
2022/05/24 09:56:58;;;;;;;;;;;;;;;21.72;48.57;98625.19;4453706;32;33991;-83
2022/05/24 09:59:26;;;;;;;;;;;;;;;21.73;49.21;98620.78;4467635;32;34075;-90
2022/05/24 10:01:56;;;;;;;;;;;;;;;21.81;48.97;98616.88;4467620;32;34478;-81
2022/05/24 10:04:37;;;;;;;;;;;;;;;21.89;48.58;98623.63;4467678;32;33128;-81
2022/05/24 10:07:08;;;;;;;;;;;;;;;22.54;49.67;98626.12;4467712;32;34288;-81
2022/05/24 10:09:35;;;;;;;;;;;;;;;22.71;47.19;98635.06;4453640;32;34130;-82
2022/05/24 10:12:05;;;;;;;;;;;;;;;22.76;46.70;98628.63;4467673;32;34084;-82
2022/05/24 10:14:32;;;;;;;;;;;;;;;22.39;46.83;98615.34;4453392;32;33294;-81
2022/05/24 10:17:14;;;;;;;;;;;;;;;21.93;47.75;98627.84;4467718;32;35139;-83
2022/05/24 10:20:00;;;;;;;;;;;;;;;22.38;48.22;98618.94;4453436;32;34490;-82
2022/05/24 10:22:46;;;;;;;;;;;;;;;22.15;49.20;98615.50;4467519;32;33889;-81
2022/05/24 10:25:19;;;;;;;;;;;;;;;22.45;47.77;98612.44;4467602;32;34057;-92
2022/05/24 10:27:57;;;;;;;;;;;;;;;21.28;50.22;98613.75;4467244;32;33932;-81
2022/05/24 10:30:31;;;;;;;;;;;;;;;22.22;48.05;98606.41;4453640;32;34543;-81
2022/05/24 10:39:15;;;;;;;;;;;;;;;23.99;44.11;98602.50;4470977;32;34286;-83
2022/05/24 10:42:03;;;;;;;;;;;;;;;24.43;42.00;98593.22;4481406;32;35203;-81
2022/05/24 10:44:37;;;;;;;;;;;;;;;23.75;43.37;98604.59;4468019;32;34431;-82
2022/05/24 10:47:08;;;;;;;;;;;;;;;23.94;43.14;98593.06;4482462;32;33448;-82
2022/05/24 10:49:39;;;;;;;;;;;;;;;24.24;42.52;98586.22;4468557;32;35061;-83
2022/05/24 10:52:25;;;;;;;;;;;;;;;23.86;45.61;98600.53;4482867;31;34446;-82
2022/05/24 10:54:58;;;;;;;;;;;;;;;23.67;43.27;98604.09;4482479;32;34477;-81
2022/05/24 10:57:28;;;;;;;;;;;;;;;23.39;43.36;98604.59;4482710;32;33739;-81
2022/05/24 10:59:56;;;;;;;;;;;;;;;23.26;44.09;98599.03;4482460;32;35103;-82
2022/05/24 11:02:29;;;;;;;;;;;;;;;24.50;44.36;98594.59;4482541;32;35235;-81
2022/05/24 11:05:03;;;;;;;;;;;;;;;24.34;41.95;98598.97;4468573;32;34521;-82
2022/05/24 11:07:31;;;;;;;;;;;;;;;24.21;41.90;98588.16;4482638;32;32712;-82
2022/05/24 11:10:05;;;;;;;;;;;;;;;24.94;41.31;98572.78;4468368;32;34226;-83
2022/05/24 11:12:35;;;;;;;;;;;;;;;24.74;41.87;98572.09;4468417;32;35302;-86
2022/05/24 11:15:06;;;;;;;;;;;;;;;24.79;41.54;98570.97;4468135;32;35088;-82
2022/05/24 11:17:33;;;;;;;;;;;;;;;24.74;41.29;98565.94;4468427;32;33099;-81
2022/05/24 11:20:04;;;;;;;;;;;;;;;25.09;41.18;98566.63;4482429;32;33906;-82
2022/05/24 11:22:35;;;;;;;;;;;;;;;25.03;40.45;98571.41;4468362;32;35008;-82
2022/05/24 11:25:19;;;;;;;;;;;;;;;25.34;42.20;98576.72;4468322;32;34015;-82
2022/05/24 11:27:51;;;;;;;;;;;;;;;23.91;43.41;98586.16;4481946;32;32836;-93
2022/05/24 11:30:28;;;;;;;;;;;;;;;23.94;44.82;98585.13;4467883;32;32747;-84
2022/05/24 11:33:05;;;;;;;;;;;;;;;25.28;41.47;98576.25;4481946;32;34248;-81
2022/05/24 11:35:39;;;;;;;;;;;;;;;25.42;42.17;98569.22;4467861;32;33173;-82
2022/05/24 11:38:35;;;;;;;;;;;;;;;24.66;40.70;98563.72;4481951;32;33739;-83
2022/05/24 11:41:19;;;;;;;;;;;;;;;24.61;40.44;98560.44;4481957;32;35089;-82
2022/05/24 11:43:49;;;;;;;;;;;;;;;22.58;44.76;98574.00;4482332;32;34536;-82
2022/05/24 11:46:45;;;;;;;;;;;;;;;24.67;41.14;98565.41;4482062;32;34506;-81
2022/05/24 11:49:18;;;;;;;;;;;;;;;24.74;41.65;98569.44;4480800;32;33462;-82
2022/05/24 11:51:47;;;;;;;;;;;;;;;25.74;39.74;98569.13;4481967;32;33733;-81
2022/05/24 11:54:18;;;;;;;;;;;;;;;25.22;40.71;98572.97;4467623;32;34534;-82
2022/05/24 11:56:55;;;;;;;;;;;;;;;24.93;40.85;98576.41;4481767;31;33856;-82
2022/05/24 11:59:52;;;;;;;;;;;;;;;25.14;41.03;98563.75;4468777;32;34217;-82
2022/05/24 12:02:20;;;;;;;;;;;;;;;25.52;39.35;98564.22;4473863;32;34921;-82
2022/05/24 12:08:22;;;;;;;;;;;;;;;25.74;40.07;98566.47;4484069;32;33610;-82
2022/05/24 12:11:09;;;;;;;;;;;;;;;25.00;39.79;98549.44;4469727;32;32991;-83
2022/05/24 12:13:44;;;;;;;;;;;;;;;24.65;40.31;98545.22;4470099;32;33912;-82
2022/05/24 12:16:31;;;;;;;;;;;;;;;25.00;40.85;98548.56;4484011;32;34827;-82
2022/05/24 12:19:06;;;;;;;;;;;;;;;25.14;40.05;98551.34;4483658;32;34094;-83
2022/05/24 12:21:37;;;;;;;;;;;;;;;26.13;38.51;98549.97;4484297;32;33303;-82
2022/05/24 12:24:25;;;;;;;;;;;;;;;24.99;39.40;98541.56;4484052;32;34868;-82
2022/05/24 12:27:11;;;;;;;;;;;;;;;24.54;40.96;98548.44;4476435;32;34046;-82
2022/05/24 12:29:42;;;;;;;;;;;;;;;25.61;39.54;98554.84;4484051;32;34989;-86
2022/05/24 12:32:10;;;;;;;;;;;;;;;25.31;39.36;98547.75;4484044;32;34350;-82
2022/05/24 12:34:37;;;;;;;;;;;;;;;25.55;38.79;98541.97;4470001;32;35164;-82
2022/05/24 12:37:13;;;;;;;;;;;;;;;25.42;38.58;98541.78;4483597;32;34266;-84
2022/05/24 12:39:40;;;;;;;;;;;;;;;25.89;38.89;98546.16;4469463;32;35283;-83
2022/05/24 12:42:12;;;;;;;;;;;;;;;26.20;37.97;98547.81;4484077;32;34420;-83
2022/05/24 12:44:45;;;;;;;;;;;;;;;25.85;39.01;98553.44;4484120;32;34286;-82
2022/05/24 12:47:15;;;;;;;;;;;;;;;25.99;38.57;98544.69;4470187;32;33566;-85
2022/05/24 12:49:49;;;;;;;;;;;;;;;25.62;39.07;98532.69;4469685;32;33785;-81
2022/05/24 12:52:22;;;;;;;;;;;;;;;26.22;38.46;98534.47;4484042;31;34028;-85
2022/05/24 12:54:51;;;;;;;;;;;;;;;25.48;39.02;98538.78;4469755;32;33643;-82
2022/05/24 12:57:21;;;;;;;;;;;;;;;26.18;38.01;98525.81;4444499;32;800938;-82
2022/05/24 12:59:55;;;;;;;;;;;;;;;26.60;37.94;98524.97;4469554;32;34771;-82
2022/05/24 13:02:22;;;;;;;;;;;;;;;26.56;36.81;98518.16;4469584;32;33421;-83
2022/05/24 13:04:50;;;;;;;;;;;;;;;26.40;38.62;98509.38;4483847;31;33375;-82
2022/05/24 13:07:37;;;;;;;;;;;;;;;25.44;39.51;98524.00;4483790;32;34371;-82
2022/05/24 13:10:17;;;;;;;;;;;;;;;24.49;41.10;98529.31;4483603;31;34929;-87
2022/05/24 13:12:45;;;;;;;;;;;;;;;25.46;39.07;98533.59;4469799;32;33416;-83
2022/05/24 13:15:15;;;;;;;;;;;;;;;26.40;38.97;98522.66;4469648;32;34662;-81
2022/05/24 13:17:43;;;;;;;;;;;;;;;26.26;37.42;98512.91;4469807;32;33889;-82
2022/05/24 13:20:12;;;;;;;;;;;;;;;24.79;40.55;98517.97;4483694;32;34072;-82
2022/05/24 13:22:47;;;;;;;;;;;;;;;25.82;38.82;98519.12;4483462;32;34209;-82
2022/05/24 13:25:24;;;;;;;;;;;;;;;25.94;37.57;98513.06;4474623;32;34333;-82
2022/05/24 13:28:02;;;;;;;;;;;;;;;26.49;37.74;98516.81;4460504;32;33724;-82
2022/05/24 13:33:35;;;;;;;;;;;;;;;26.52;39.49;98513.97;4471648;32;33222;-93
2022/05/24 13:36:03;;;;;;;;;;;;;;;26.91;36.53;98509.72;4454355;32;34549;-81
2022/05/24 13:38:30;;;;;;;;;;;;;;;26.00;37.97;98513.66;4453581;32;33920;-81
2022/05/24 13:40:58;;;;;;;;;;;;;;;26.13;37.59;98506.63;4467905;32;34780;-81
2022/05/24 13:43:31;;;;;;;;;;;;;;;25.92;38.25;98508.81;4453655;32;33327;-84
2022/05/24 13:46:08;;;;;;;;;;;;;;;26.51;36.85;98506.94;4476271;32;34783;-82
2022/05/24 13:48:55;;;;;;;;;;;;;;;26.27;37.76;98503.12;4483624;32;33900;-83
2022/05/24 13:51:31;;;;;;;;;;;;;;;26.08;37.55;98500.75;4483863;32;35603;-83
2022/05/24 13:53:58;;;;;;;;;;;;;;;25.70;38.02;98507.41;4469267;32;34156;-82
2022/05/24 13:56:27;;;;;;;;;;;;;;;26.54;37.52;98501.44;4483466;32;34111;-82